sensor_id;sensor_type;location;lat;lon;timestamp;pressure;altitude;pressure_sealevel;temperature;humidity
65175;BME280;51761;42.126;24.752;2023-02-13T00:02:23;101552.50;;;5.33;58.37
65175;BME280;51761;42.126;24.752;2023-02-13T00:04:49;101514.34;;;5.06;58.41
65175;BME280;51761;42.126;24.752;2023-02-13T00:07:14;101546.16;;;5.32;58.32
65175;BME280;51761;42.126;24.752;2023-02-13T00:09:40;101543.09;;;5.13;58.85
65175;BME280;51761;42.126;24.752;2023-02-13T00:12:06;101548.81;;;5.29;58.54
65175;BME280;51761;42.126;24.752;2023-02-13T00:14:36;101552.38;;;5.29;58.57
65175;BME280;51761;42.126;24.752;2023-02-13T00:17:02;101542.75;;;5.15;58.79
65175;BME280;51761;42.126;24.752;2023-02-13T00:19:28;101546.44;;;5.19;58.69
65175;BME280;51761;42.126;24.752;2023-02-13T00:21:53;101565.72;;;5.15;58.78
65175;BME280;51761;42.126;24.752;2023-02-13T00:24:19;101545.41;;;5.11;58.68
65175;BME280;51761;42.126;24.752;2023-02-13T00:26:44;101562.19;;;5.27;58.40
65175;BME280;51761;42.126;24.752;2023-02-13T00:29:10;101561.72;;;5.25;58.58
65175;BME280;51761;42.126;24.752;2023-02-13T00:31:35;101564.13;;;5.26;58.61
65175;BME280;51761;42.126;24.752;2023-02-13T00:34:01;101563.25;;;5.34;57.91
65175;BME280;51761;42.126;24.752;2023-02-13T00:36:26;101563.06;;;5.39;58.15
65175;BME280;51761;42.126;24.752;2023-02-13T00:38:52;101547.38;;;5.23;58.28
65175;BME280;51761;42.126;24.752;2023-02-13T00:41:18;101568.38;;;5.44;58.10
65175;BME280;51761;42.126;24.752;2023-02-13T00:43:45;101567.47;;;5.52;57.79
65175;BME280;51761;42.126;24.752;2023-02-13T00:46:10;101543.69;;;5.51;57.39
65175;BME280;51761;42.126;24.752;2023-02-13T00:48:36;101554.28;;;5.49;57.30
65175;BME280;51761;42.126;24.752;2023-02-13T00:51:02;101553.59;;;5.40;57.76
65175;BME280;51761;42.126;24.752;2023-02-13T00:53:29;101557.41;;;5.48;57.61
65175;BME280;51761;42.126;24.752;2023-02-13T00:55:54;101562.72;;;5.53;57.70
65175;BME280;51761;42.126;24.752;2023-02-13T00:58:20;101562.84;;;5.56;57.81
65175;BME280;51761;42.126;24.752;2023-02-13T01:00:46;101571.53;;;5.55;57.65
65175;BME280;51761;42.126;24.752;2023-02-13T01:03:15;101546.78;;;5.50;57.72
65175;BME280;51761;42.126;24.752;2023-02-13T01:05:42;101538.56;;;5.41;57.69
65175;BME280;51761;42.126;24.752;2023-02-13T01:08:09;101566.91;;;5.59;57.56
65175;BME280;51761;42.126;24.752;2023-02-13T01:10:39;101569.69;;;5.59;57.54
65175;BME280;51761;42.126;24.752;2023-02-13T01:13:05;101545.28;;;5.52;57.14
65175;BME280;51761;42.126;24.752;2023-02-13T01:15:32;101560.13;;;5.68;57.01
65175;BME280;51761;42.126;24.752;2023-02-13T01:17:58;101544.97;;;5.66;56.73
65175;BME280;51761;42.126;24.752;2023-02-13T01:20:26;101538.72;;;5.69;56.65
65175;BME280;51761;42.126;24.752;2023-02-13T01:22:52;101566.22;;;5.74;56.87
65175;BME280;51761;42.126;24.752;2023-02-13T01:25:17;101560.00;;;5.77;56.63
65175;BME280;51761;42.126;24.752;2023-02-13T01:27:43;101562.69;;;5.85;56.80
65175;BME280;51761;42.126;24.752;2023-02-13T01:30:11;101564.09;;;5.79;56.62
65175;BME280;51761;42.126;24.752;2023-02-13T01:32:42;101572.03;;;5.81;57.02
65175;BME280;51761;42.126;24.752;2023-02-13T01:35:08;101557.34;;;5.68;56.88
65175;BME280;51761;42.126;24.752;2023-02-13T01:37:35;101557.69;;;5.67;57.15
65175;BME280;51761;42.126;24.752;2023-02-13T01:40:01;101576.84;;;5.72;57.25
65175;BME280;51761;42.126;24.752;2023-02-13T01:42:29;101572.44;;;5.59;57.69
65175;BME280;51761;42.126;24.752;2023-02-13T01:44:58;101580.00;;;5.70;58.28
65175;BME280;51761;42.126;24.752;2023-02-13T01:50:09;101582.53;;;5.75;57.49
65175;BME280;51761;42.126;24.752;2023-02-13T01:52:38;101587.34;;;5.66;57.73
65175;BME280;51761;42.126;24.752;2023-02-13T01:55:05;101590.13;;;5.66;58.42
65175;BME280;51761;42.126;24.752;2023-02-13T01:57:32;101591.19;;;5.74;57.73
65175;BME280;51761;42.126;24.752;2023-02-13T02:00:18;101593.94;;;5.62;57.73
65175;BME280;51761;42.126;24.752;2023-02-13T02:02:49;101591.94;;;5.50;58.05
65175;BME280;51761;42.126;24.752;2023-02-13T02:05:17;101590.63;;;5.36;58.88
65175;BME280;51761;42.126;24.752;2023-02-13T02:07:44;101592.56;;;5.35;58.89
65175;BME280;51761;42.126;24.752;2023-02-13T02:10:17;101603.88;;;5.30;59.17
65175;BME280;51761;42.126;24.752;2023-02-13T02:15:09;101598.78;;;5.00;60.05
65175;BME280;51761;42.126;24.752;2023-02-13T02:17:35;101595.13;;;4.87;60.64
65175;BME280;51761;42.126;24.752;2023-02-13T02:29:51;101611.31;;;4.57;61.80
65175;BME280;51761;42.126;24.752;2023-02-13T02:32:06;101626.38;;;4.39;62.17
65175;BME280;51761;42.126;24.752;2023-02-13T02:40:25;101633.53;;;4.02;63.91
65175;BME280;51761;42.126;24.752;2023-02-13T02:42:57;101631.78;;;3.98;64.10
65175;BME280;51761;42.126;24.752;2023-02-13T02:51:23;101646.50;;;3.56;65.59
65175;BME280;51761;42.126;24.752;2023-02-13T02:56:56;101629.78;;;3.44;66.07
65175;BME280;51761;42.126;24.752;2023-02-13T02:59:26;101647.00;;;3.41;66.52
65175;BME280;51761;42.126;24.752;2023-02-13T03:02:11;101649.78;;;3.41;66.39
65175;BME280;51761;42.126;24.752;2023-02-13T03:04:57;101644.72;;;3.09;67.35
65175;BME280;51761;42.126;24.752;2023-02-13T03:07:43;101662.13;;;3.18;67.58
65175;BME280;51761;42.126;24.752;2023-02-13T03:10:12;101663.41;;;3.20;67.45
65175;BME280;51761;42.126;24.752;2023-02-13T03:13:00;101655.94;;;3.04;67.97
65175;BME280;51761;42.126;24.752;2023-02-13T03:15:50;101634.81;;;2.83;68.49
65175;BME280;51761;42.126;24.752;2023-02-13T03:18:40;101656.59;;;2.84;68.68
65175;BME280;51761;42.126;24.752;2023-02-13T03:21:52;101655.56;;;2.63;69.46
65175;BME280;51761;42.126;24.752;2023-02-13T03:30:42;101655.94;;;2.23;71.46
65175;BME280;51761;42.126;24.752;2023-02-13T03:36:02;101663.34;;;2.14;71.87
65175;BME280;51761;42.126;24.752;2023-02-13T03:41:23;101668.81;;;2.05;72.66
65175;BME280;51761;42.126;24.752;2023-02-13T03:44:12;101668.53;;;2.15;72.71
65175;BME280;51761;42.126;24.752;2023-02-13T03:46:43;101669.03;;;2.17;72.50
65175;BME280;51761;42.126;24.752;2023-02-13T03:49:16;101644.78;;;1.97;72.66
65175;BME280;51761;42.126;24.752;2023-02-13T03:52:08;101667.72;;;2.15;72.71
65175;BME280;51761;42.126;24.752;2023-02-13T03:54:43;101668.88;;;2.14;72.82
65175;BME280;51761;42.126;24.752;2023-02-13T03:57:31;101644.16;;;2.00;72.62
65175;BME280;51761;42.126;24.752;2023-02-13T04:00:16;101643.88;;;2.10;72.71
65175;BME280;51761;42.126;24.752;2023-02-13T04:03:00;101665.63;;;2.20;72.52
65175;BME280;51761;42.126;24.752;2023-02-13T04:05:35;101643.47;;;1.95;73.29
65175;BME280;51761;42.126;24.752;2023-02-13T04:08:04;101644.28;;;1.95;72.71
65175;BME280;51761;42.126;24.752;2023-02-13T04:10:31;101662.78;;;1.95;72.74
65175;BME280;51761;42.126;24.752;2023-02-13T04:15:55;101662.66;;;2.08;72.65
65175;BME280;51761;42.126;24.752;2023-02-13T04:18:29;101674.38;;;2.14;72.29
65175;BME280;51761;42.126;24.752;2023-02-13T04:20:56;101660.16;;;1.90;72.90
65175;BME280;51761;42.126;24.752;2023-02-13T04:23:21;101653.81;;;1.89;72.86
65175;BME280;51761;42.126;24.752;2023-02-13T04:25:51;101656.66;;;1.76;73.02
65175;BME280;51761;42.126;24.752;2023-02-13T04:28:18;101670.16;;;1.55;74.25
65175;BME280;51761;42.126;24.752;2023-02-13T04:30:43;101647.34;;;1.63;74.24
65175;BME280;51761;42.126;24.752;2023-02-13T04:33:09;101670.78;;;1.83;74.03
65175;BME280;51761;42.126;24.752;2023-02-13T04:35:34;101665.13;;;1.79;73.39
65175;BME280;51761;42.126;24.752;2023-02-13T04:38:00;101664.75;;;1.72;73.40
65175;BME280;51761;42.126;24.752;2023-02-13T04:40:26;101665.63;;;1.81;73.10
65175;BME280;51761;42.126;24.752;2023-02-13T04:42:51;101669.84;;;1.87;73.52
65175;BME280;51761;42.126;24.752;2023-02-13T04:45:17;101646.06;;;1.61;73.15
65175;BME280;51761;42.126;24.752;2023-02-13T04:47:42;101640.84;;;1.59;73.32
65175;BME280;51761;42.126;24.752;2023-02-13T04:50:08;101652.84;;;1.63;73.42
65175;BME280;51761;42.126;24.752;2023-02-13T04:52:34;101660.19;;;1.68;73.43
65175;BME280;51761;42.126;24.752;2023-02-13T04:54:59;101654.13;;;1.57;73.01
65175;BME280;51761;42.126;24.752;2023-02-13T04:57:25;101678.63;;;1.67;72.88
65175;BME280;51761;42.126;24.752;2023-02-13T04:59:50;101676.72;;;1.68;72.88
65175;BME280;51761;42.126;24.752;2023-02-13T05:02:15;101653.31;;;1.57;72.79
65175;BME280;51761;42.126;24.752;2023-02-13T05:04:41;101674.09;;;1.63;73.16
65175;BME280;51761;42.126;24.752;2023-02-13T05:07:06;101677.91;;;1.75;73.19
65175;BME280;51761;42.126;24.752;2023-02-13T05:09:32;101677.25;;;1.78;72.96
65175;BME280;51761;42.126;24.752;2023-02-13T05:11:57;101661.88;;;1.77;72.59
65175;BME280;51761;42.126;24.752;2023-02-13T05:14:23;101662.59;;;1.69;72.67
65175;BME280;51761;42.126;24.752;2023-02-13T05:16:48;101684.06;;;1.81;72.66
65175;BME280;51761;42.126;24.752;2023-02-13T05:19:15;101688.78;;;1.80;72.84
65175;BME280;51761;42.126;24.752;2023-02-13T05:21:40;101676.72;;;1.68;72.69
65175;BME280;51761;42.126;24.752;2023-02-13T05:24:24;101682.22;;;1.68;72.75
65175;BME280;51761;42.126;24.752;2023-02-13T05:26:50;101677.34;;;1.65;72.93
65175;BME280;51761;42.126;24.752;2023-02-13T05:29:15;101680.41;;;1.63;72.95
65175;BME280;51761;42.126;24.752;2023-02-13T05:31:45;101688.91;;;1.75;73.21
65175;BME280;51761;42.126;24.752;2023-02-13T05:34:11;101707.72;;;1.82;72.55
65175;BME280;51761;42.126;24.752;2023-02-13T05:36:37;101711.75;;;1.76;72.98
65175;BME280;51761;42.126;24.752;2023-02-13T05:39:02;101702.28;;;1.68;72.84
65175;BME280;51761;42.126;24.752;2023-02-13T05:41:28;101730.59;;;1.82;72.00
65175;BME280;51761;42.126;24.752;2023-02-13T05:43:53;101728.97;;;2.03;71.69
65175;BME280;51761;42.126;24.752;2023-02-13T05:46:19;101739.66;;;2.35;70.03
65175;BME280;51761;42.126;24.752;2023-02-13T05:48:45;101729.19;;;2.54;69.51
65175;BME280;51761;42.126;24.752;2023-02-13T05:51:10;101708.13;;;2.58;68.58
65175;BME280;51761;42.126;24.752;2023-02-13T05:53:36;101739.88;;;3.03;67.59
65175;BME280;51761;42.126;24.752;2023-02-13T05:56:05;101739.13;;;3.45;66.32
65175;BME280;51761;42.126;24.752;2023-02-13T05:58:31;101745.28;;;3.84;64.69
65175;BME280;51761;42.126;24.752;2023-02-13T06:00:57;101719.50;;;4.18;63.22
65175;BME280;51761;42.126;24.752;2023-02-13T06:03:24;101730.16;;;4.82;60.89
65175;BME280;51761;42.126;24.752;2023-02-13T06:05:50;101742.31;;;5.39;59.70
65175;BME280;51761;42.126;24.752;2023-02-13T06:08:15;101740.78;;;5.70;58.02
65175;BME280;51761;42.126;24.752;2023-02-13T06:10:41;101735.31;;;6.15;56.40
65175;BME280;51761;42.126;24.752;2023-02-13T06:13:06;101721.75;;;6.45;55.30
65175;BME280;51761;42.126;24.752;2023-02-13T06:15:32;101740.81;;;7.07;53.60
65175;BME280;51761;42.126;24.752;2023-02-13T06:17:57;101725.28;;;7.30;52.29
65175;BME280;51761;42.126;24.752;2023-02-13T06:20:23;101742.63;;;7.78;51.44
65175;BME280;51761;42.126;24.752;2023-02-13T06:22:49;101735.03;;;8.02;50.51
65175;BME280;51761;42.126;24.752;2023-02-13T06:25:15;101740.28;;;8.19;49.31
65175;BME280;51761;42.126;24.752;2023-02-13T06:27:40;101723.44;;;8.43;48.41
65175;BME280;51761;42.126;24.752;2023-02-13T06:30:06;101756.34;;;9.00;47.81
65175;BME280;51761;42.126;24.752;2023-02-13T06:32:32;101754.72;;;9.14;47.60
65175;BME280;51761;42.126;24.752;2023-02-13T06:34:57;101744.75;;;9.32;47.13
65175;BME280;51761;42.126;24.752;2023-02-13T06:37:23;101744.75;;;9.32;46.67
65175;BME280;51761;42.126;24.752;2023-02-13T06:39:48;101729.91;;;9.09;47.25
65175;BME280;51761;42.126;24.752;2023-02-13T06:42:14;101746.38;;;9.33;47.15
65175;BME280;51761;42.126;24.752;2023-02-13T06:44:39;101726.75;;;9.45;46.06
65175;BME280;51761;42.126;24.752;2023-02-13T06:47:05;101721.63;;;9.85;45.29
65175;BME280;51761;42.126;24.752;2023-02-13T06:49:30;101750.88;;;10.29;44.51
65175;BME280;51761;42.126;24.752;2023-02-13T06:51:56;101717.47;;;10.36;43.99
65175;BME280;51761;42.126;24.752;2023-02-13T06:54:21;101744.94;;;10.53;43.78
65175;BME280;51761;42.126;24.752;2023-02-13T06:56:47;101721.56;;;10.42;43.24
65175;BME280;51761;42.126;24.752;2023-02-13T06:59:12;101739.47;;;10.60;43.49
65175;BME280;51761;42.126;24.752;2023-02-13T07:01:38;101730.31;;;10.85;42.45
65175;BME280;51761;42.126;24.752;2023-02-13T07:04:03;101734.03;;;10.93;43.09
65175;BME280;51761;42.126;24.752;2023-02-13T07:06:29;101726.09;;;11.20;42.07
65175;BME280;51761;42.126;24.752;2023-02-13T07:08:54;101723.91;;;11.33;41.65
65175;BME280;51761;42.126;24.752;2023-02-13T07:11:22;101724.97;;;11.51;41.12
65175;BME280;51761;42.126;24.752;2023-02-13T07:13:49;101706.03;;;11.41;40.47
65175;BME280;51761;42.126;24.752;2023-02-13T07:16:14;101724.69;;;11.59;40.74
65175;BME280;51761;42.126;24.752;2023-02-13T07:18:40;101730.84;;;11.42;40.74
65175;BME280;51761;42.126;24.752;2023-02-13T07:21:06;101728.56;;;11.25;41.74
65175;BME280;51761;42.126;24.752;2023-02-13T07:23:32;101725.16;;;11.09;41.99
65175;BME280;51761;42.126;24.752;2023-02-13T07:25:58;101719.22;;;10.44;42.76
65175;BME280;51761;42.126;24.752;2023-02-13T07:28:25;101722.66;;;10.79;42.75
65175;BME280;51761;42.126;24.752;2023-02-13T07:30:50;101728.09;;;10.94;42.30
65175;BME280;51761;42.126;24.752;2023-02-13T07:33:16;101739.09;;;11.58;41.73
65175;BME280;51761;42.126;24.752;2023-02-13T07:35:49;101740.66;;;11.85;40.84
65175;BME280;51761;42.126;24.752;2023-02-13T07:38:16;101740.38;;;11.93;40.40
65175;BME280;51761;42.126;24.752;2023-02-13T07:40:41;101742.13;;;12.08;40.60
65175;BME280;51761;42.126;24.752;2023-02-13T07:43:07;101735.47;;;12.20;40.17
65175;BME280;51761;42.126;24.752;2023-02-13T07:45:32;101731.84;;;12.19;39.76
65175;BME280;51761;42.126;24.752;2023-02-13T07:47:58;101734.22;;;12.54;39.17
65175;BME280;51761;42.126;24.752;2023-02-13T07:50:24;101722.13;;;12.46;39.42
65175;BME280;51761;42.126;24.752;2023-02-13T07:52:57;101736.66;;;12.58;39.26
65175;BME280;51761;42.126;24.752;2023-02-13T07:55:23;101735.94;;;12.65;39.59
65175;BME280;51761;42.126;24.752;2023-02-13T07:57:49;101744.66;;;12.93;37.93
65175;BME280;51761;42.126;24.752;2023-02-13T08:00:15;101735.09;;;12.61;37.97
65175;BME280;51761;42.126;24.752;2023-02-13T08:02:41;101718.22;;;12.54;38.13
65175;BME280;51761;42.126;24.752;2023-02-13T08:05:07;101722.47;;;12.81;38.56
65175;BME280;51761;42.126;24.752;2023-02-13T08:07:33;101724.34;;;13.10;37.89
65175;BME280;51761;42.126;24.752;2023-02-13T08:09:58;101718.91;;;13.34;73.52
65175;BME280;51761;42.126;24.752;2023-02-13T08:12:43;101719.13;;;13.73;63.04
65175;BME280;51761;42.126;24.752;2023-02-13T08:15:13;101727.44;;;14.47;51.38
65175;BME280;51761;42.126;24.752;2023-02-13T08:17:40;101704.16;;;14.50;54.86
65175;BME280;51761;42.126;24.752;2023-02-13T08:20:06;101717.81;;;15.08;54.71
65175;BME280;51761;42.126;24.752;2023-02-13T08:22:33;101712.91;;;15.71;55.59
65175;BME280;51761;42.126;24.752;2023-02-13T08:24:58;101704.53;;;15.47;38.03
65175;BME280;51761;42.126;24.752;2023-02-13T08:27:24;101717.41;;;15.16;49.26
65175;BME280;51761;42.126;24.752;2023-02-13T08:29:50;101706.84;;;15.76;37.16
65175;BME280;51761;42.126;24.752;2023-02-13T08:32:16;101718.44;;;16.02;43.21
65175;BME280;51761;42.126;24.752;2023-02-13T08:34:41;101710.09;;;15.75;34.56
65175;BME280;51761;42.126;24.752;2023-02-13T08:37:07;101719.84;;;14.97;34.90
65175;BME280;51761;42.126;24.752;2023-02-13T08:39:32;101719.41;;;14.46;35.86
65175;BME280;51761;42.126;24.752;2023-02-13T08:41:58;101713.25;;;14.06;36.87
65175;BME280;51761;42.126;24.752;2023-02-13T08:44:23;101697.63;;;13.30;37.10
65175;BME280;51761;42.126;24.752;2023-02-13T08:46:49;101697.31;;;13.45;37.27
65175;BME280;51761;42.126;24.752;2023-02-13T08:49:14;101701.28;;;13.34;37.80
65175;BME280;51761;42.126;24.752;2023-02-13T08:51:40;101711.91;;;13.72;37.24
65175;BME280;51761;42.126;24.752;2023-02-13T08:54:05;101709.97;;;13.90;37.05
65175;BME280;51761;42.126;24.752;2023-02-13T08:56:31;101706.25;;;13.65;37.66
65175;BME280;51761;42.126;24.752;2023-02-13T08:58:56;101700.81;;;13.32;37.97
65175;BME280;51761;42.126;24.752;2023-02-13T09:01:22;101688.84;;;12.81;38.64
65175;BME280;51761;42.126;24.752;2023-02-13T09:03:48;101706.66;;;13.02;38.94
65175;BME280;51761;42.126;24.752;2023-02-13T09:06:14;101700.06;;;13.38;37.15
65175;BME280;51761;42.126;24.752;2023-02-13T09:08:39;101702.00;;;13.20;37.36
65175;BME280;51761;42.126;24.752;2023-02-13T09:11:05;101700.00;;;13.28;37.28
65175;BME280;51761;42.126;24.752;2023-02-13T09:13:32;101702.56;;;13.54;37.53
65175;BME280;51761;42.126;24.752;2023-02-13T09:16:04;101689.44;;;13.72;37.93
65175;BME280;51761;42.126;24.752;2023-02-13T09:18:29;101688.75;;;14.10;37.05
65175;BME280;51761;42.126;24.752;2023-02-13T09:20:59;101695.25;;;14.17;37.31
65175;BME280;51761;42.126;24.752;2023-02-13T09:23:25;101693.25;;;14.25;36.52
65175;BME280;51761;42.126;24.752;2023-02-13T09:25:51;101671.91;;;14.10;36.28
65175;BME280;51761;42.126;24.752;2023-02-13T09:28:16;101687.94;;;13.99;35.96
65175;BME280;51761;42.126;24.752;2023-02-13T09:30:42;101678.41;;;14.21;36.30
65175;BME280;51761;42.126;24.752;2023-02-13T09:33:10;101661.56;;;14.45;36.55
65175;BME280;51761;42.126;24.752;2023-02-13T09:35:36;101667.19;;;14.52;36.37
65175;BME280;51761;42.126;24.752;2023-02-13T09:38:02;101653.09;;;15.11;36.09
65175;BME280;51761;42.126;24.752;2023-02-13T09:40:34;101655.81;;;15.57;35.54
65175;BME280;51761;42.126;24.752;2023-02-13T09:43:13;101649.09;;;14.81;35.89
65175;BME280;51761;42.126;24.752;2023-02-13T09:45:42;101650.25;;;15.36;35.51
65175;BME280;51761;42.126;24.752;2023-02-13T09:48:17;101649.38;;;15.60;34.35
65175;BME280;51761;42.126;24.752;2023-02-13T09:50:45;101644.63;;;15.36;34.48
65175;BME280;51761;42.126;24.752;2023-02-13T09:53:20;101638.53;;;15.51;34.78
65175;BME280;51761;42.126;24.752;2023-02-13T09:55:54;101626.00;;;15.66;34.71
65175;BME280;51761;42.126;24.752;2023-02-13T10:01:08;101621.63;;;15.51;35.11
65175;BME280;51761;42.126;24.752;2023-02-13T10:06:46;101614.09;;;15.03;34.37
65175;BME280;51761;42.126;24.752;2023-02-13T10:18:02;101600.38;;;15.36;35.39
65175;BME280;51761;42.126;24.752;2023-02-13T10:20:44;101592.97;;;15.67;34.13
65175;BME280;51761;42.126;24.752;2023-02-13T10:23:21;101575.69;;;15.65;33.65
65175;BME280;51761;42.126;24.752;2023-02-13T10:25:56;101572.59;;;16.10;33.45
65175;BME280;51761;42.126;24.752;2023-02-13T10:28:35;101578.41;;;16.43;33.06
65175;BME280;51761;42.126;24.752;2023-02-13T10:31:05;101573.91;;;16.53;33.28
65175;BME280;51761;42.126;24.752;2023-02-13T10:33:40;101565.97;;;16.37;32.47
65175;BME280;51761;42.126;24.752;2023-02-13T10:38:43;101534.16;;;15.79;31.82
65175;BME280;51761;42.126;24.752;2023-02-13T10:41:21;101549.91;;;15.73;32.44
65175;BME280;51761;42.126;24.752;2023-02-13T10:57:26;101506.28;;;16.46;31.33
65175;BME280;51761;42.126;24.752;2023-02-13T11:02:44;101509.88;;;16.83;30.53
65175;BME280;51761;42.126;24.752;2023-02-13T11:05:16;101502.50;;;16.96;30.75
65175;BME280;51761;42.126;24.752;2023-02-13T11:07:46;101500.63;;;16.83;31.34
65175;BME280;51761;42.126;24.752;2023-02-13T11:10:20;101500.41;;;17.04;31.19
65175;BME280;51761;42.126;24.752;2023-02-13T11:12:46;101491.56;;;17.32;30.90
65175;BME280;51761;42.126;24.752;2023-02-13T11:15:29;101488.66;;;17.39;30.90
65175;BME280;51761;42.126;24.752;2023-02-13T11:18:03;101467.44;;;17.24;29.89
65175;BME280;51761;42.126;24.752;2023-02-13T11:20:39;101460.94;;;17.27;29.36
65175;BME280;51761;42.126;24.752;2023-02-13T11:23:17;101471.25;;;17.10;30.28
65175;BME280;51761;42.126;24.752;2023-02-13T11:25:58;101467.81;;;16.96;29.33
65175;BME280;51761;42.126;24.752;2023-02-13T11:28:25;101457.69;;;16.98;28.75
65175;BME280;51761;42.126;24.752;2023-02-13T11:30:52;101433.28;;;16.85;29.38
65175;BME280;51761;42.126;24.752;2023-02-13T11:33:23;101437.59;;;17.23;30.07
65175;BME280;51761;42.126;24.752;2023-02-13T11:36:06;101452.56;;;17.50;30.19
65175;BME280;51761;42.126;24.752;2023-02-13T11:38:32;101437.88;;;17.61;29.80
65175;BME280;51761;42.126;24.752;2023-02-13T11:41:13;101435.97;;;17.55;28.89
65175;BME280;51761;42.126;24.752;2023-02-13T11:43:48;101439.63;;;17.52;29.14
65175;BME280;51761;42.126;24.752;2023-02-13T11:46:21;101429.59;;;17.48;28.68
65175;BME280;51761;42.126;24.752;2023-02-13T11:51:52;101416.41;;;17.90;27.35
65175;BME280;51761;42.126;24.752;2023-02-13T11:56:52;101408.97;;;17.51;28.64
65175;BME280;51761;42.126;24.752;2023-02-13T11:59:21;101403.97;;;17.35;26.47
65175;BME280;51761;42.126;24.752;2023-02-13T12:02:00;101407.28;;;17.27;27.85
65175;BME280;51761;42.126;24.752;2023-02-13T12:04:26;101382.34;;;17.22;27.53
65175;BME280;51761;42.126;24.752;2023-02-13T12:07:04;101393.16;;;17.27;28.19
65175;BME280;51761;42.126;24.752;2023-02-13T12:09:38;101389.56;;;17.52;27.82
65175;BME280;51761;42.126;24.752;2023-02-13T12:12:04;101391.81;;;17.64;28.50
65175;BME280;51761;42.126;24.752;2023-02-13T12:14:37;101379.25;;;17.43;26.91
65175;BME280;51761;42.126;24.752;2023-02-13T12:17:06;101373.34;;;17.56;28.18
65175;BME280;51761;42.126;24.752;2023-02-13T12:19:46;101380.34;;;17.75;27.99
65175;BME280;51761;42.126;24.752;2023-02-13T12:22:20;101364.91;;;17.79;27.69
65175;BME280;51761;42.126;24.752;2023-02-13T12:30:29;101365.34;;;16.99;26.71
65175;BME280;51761;42.126;24.752;2023-02-13T12:36:12;101362.00;;;17.07;29.19
65175;BME280;51761;42.126;24.752;2023-02-13T12:41:27;101365.28;;;17.02;27.74
65175;BME280;51761;42.126;24.752;2023-02-13T12:44:41;101365.66;;;16.78;26.92
65175;BME280;51761;42.126;24.752;2023-02-13T12:53:22;101351.59;;;16.71;27.34
65175;BME280;51761;42.126;24.752;2023-02-13T12:58:56;101347.56;;;16.72;26.98
65175;BME280;51761;42.126;24.752;2023-02-13T13:04:46;101337.19;;;16.28;27.06
65175;BME280;51761;42.126;24.752;2023-02-13T13:07:56;101336.25;;;16.42;27.64
65175;BME280;51761;42.126;24.752;2023-02-13T13:13:51;101331.25;;;16.56;26.66
65175;BME280;51761;42.126;24.752;2023-02-13T13:19:08;101326.50;;;16.80;26.44
65175;BME280;51761;42.126;24.752;2023-02-13T13:21:47;101321.38;;;16.71;27.49
65175;BME280;51761;42.126;24.752;2023-02-13T13:27:29;101316.91;;;16.44;28.16
65175;BME280;51761;42.126;24.752;2023-02-13T13:30:10;101315.13;;;16.57;28.36
65175;BME280;51761;42.126;24.752;2023-02-13T13:32:39;101319.41;;;16.68;27.60
65175;BME280;51761;42.126;24.752;2023-02-13T13:35:12;101308.88;;;16.42;26.47
65175;BME280;51761;42.126;24.752;2023-02-13T13:48:38;101302.16;;;15.96;27.37
65175;BME280;51761;42.126;24.752;2023-02-13T13:51:06;101303.09;;;15.83;27.45
65175;BME280;51761;42.126;24.752;2023-02-13T13:53:33;101282.25;;;15.29;27.81
65175;BME280;51761;42.126;24.752;2023-02-13T13:56:02;101299.31;;;15.08;29.06
65175;BME280;51761;42.126;24.752;2023-02-13T13:58:44;101301.56;;;15.34;28.25
65175;BME280;51761;42.126;24.752;2023-02-13T14:03:55;101288.06;;;15.08;28.67
65175;BME280;51761;42.126;24.752;2023-02-13T14:06:26;101294.31;;;15.26;27.92
65175;BME280;51761;42.126;24.752;2023-02-13T14:08:58;101287.94;;;15.22;28.16
65175;BME280;51761;42.126;24.752;2023-02-13T14:11:31;101288.38;;;15.21;28.10
65175;BME280;51761;42.126;24.752;2023-02-13T14:13:59;101284.72;;;15.24;28.07
65175;BME280;51761;42.126;24.752;2023-02-13T14:16:57;101284.59;;;15.41;27.71
65175;BME280;51761;42.126;24.752;2023-02-13T14:19:39;101274.81;;;15.05;28.32
65175;BME280;51761;42.126;24.752;2023-02-13T14:24:58;101279.53;;;14.57;28.64
65175;BME280;51761;42.126;24.752;2023-02-13T14:27:30;101263.13;;;14.45;28.81
65175;BME280;51761;42.126;24.752;2023-02-13T14:29:57;101265.88;;;14.59;28.37
65175;BME280;51761;42.126;24.752;2023-02-13T14:32:34;101276.06;;;14.36;29.76
65175;BME280;51761;42.126;24.752;2023-02-13T14:35:26;101256.75;;;14.34;28.96
65175;BME280;51761;42.126;24.752;2023-02-13T14:37:52;101266.44;;;14.23;28.91
65175;BME280;51761;42.126;24.752;2023-02-13T14:42:46;101269.66;;;14.28;29.34
65175;BME280;51761;42.126;24.752;2023-02-13T14:45:17;101271.22;;;14.40;29.46
65175;BME280;51761;42.126;24.752;2023-02-13T14:47:46;101267.78;;;13.91;29.95
65175;BME280;51761;42.126;24.752;2023-02-13T14:50:49;101264.94;;;13.98;30.73
65175;BME280;51761;42.126;24.752;2023-02-13T14:53:21;101256.50;;;13.94;30.05
65175;BME280;51761;42.126;24.752;2023-02-13T14:55:53;101259.28;;;14.01;29.63
65175;BME280;51761;42.126;24.752;2023-02-13T14:58:29;101252.19;;;13.69;29.78
65175;BME280;51761;42.126;24.752;2023-02-13T15:01:30;101258.63;;;13.55;30.07
65175;BME280;51761;42.126;24.752;2023-02-13T15:04:20;101257.44;;;13.32;30.05
65175;BME280;51761;42.126;24.752;2023-02-13T15:06:47;101249.03;;;13.28;30.57
65175;BME280;51761;42.126;24.752;2023-02-13T15:09:29;101253.03;;;13.03;30.78
65175;BME280;51761;42.126;24.752;2023-02-13T15:11:56;101243.38;;;12.76;31.05
65175;BME280;51761;42.126;24.752;2023-02-13T15:14:35;101255.34;;;12.52;31.72
65175;BME280;51761;42.126;24.752;2023-02-13T15:17:14;101249.66;;;12.24;32.34